Terminal Aerodrome Forecast
Issued by NWS

Home | Current Version | Previous Version | Text Only | Print | Product List | Glossary On
Versions: 1 2 3 4 5 6 7 8 9 10 11 12 13 14 15 16 17
000
FTUS43 KAPX 301100
TAFMBL
TAF
KMBL 301137Z 3012/3112 17006KT 5SM -SHRA BR SCT008 BKN022
      WS020/21030KT
     FM301400 21008G16KT P6SM VCSH FEW020 BKN040
     FM301900 22009G18KT 5SM -TSRA BR OVC030CB
     FM302300 28005KT P6SM OVC020
     FM310300 28007KT 6SM BR OVC012
     FM310800 27005KT 5SM BR OVC006
      AMD LTD TO CLD VIS AND WIND=

USA.gov is the U.S. government's official web portal to all federal, state and local government web resources and services.